Terminal Aerodrome Forecast
Issued by NWS

Home | Current Version | Previous Version | Text Only | Print | Product List | Glossary Off
Versions: 1 2 3 4 5 6 7 8 9 10 11 12 13 14 15 16 17 18 19 20

431
FTUS43 KGRB 221403 AAA
TAFATW
TAF AMD
KATW 221403Z 2214/2312 17008KT 6SM -SHRA SCT008 BKN060 OVC100
      TEMPO 2214/2216 4SM -SHRA BKN040 OVC060
     FM221600 VRB03KT P6SM VCSH SCT015 OVC090
     FM222100 02008KT P6SM VCSH BKN025 OVC040
     FM230600 04010KT 2SM BR VCSH OVC008=

USA.gov is the U.S. government's official web portal to all federal, state and local government web resources and services.